createdAt,value
2023-04-17T00:01:58.310Z,1.33
2023-04-17T00:04:32.874Z,1.15
2023-04-17T00:07:07.717Z,1.10
2023-04-17T00:09:43.912Z,1.10
2023-04-17T00:12:19.296Z,1.00
2023-04-17T00:14:53.552Z,1.10
2023-04-17T00:17:28.787Z,1.20
2023-04-17T00:20:03.160Z,1.48
2023-04-17T00:22:37.853Z,1.00
2023-04-17T00:25:16.748Z,1.08
2023-04-17T00:27:51.938Z,1.15
2023-04-17T00:30:26.572Z,1.05
2023-04-17T00:33:07.289Z,1.08
2023-04-17T00:35:41.980Z,1.10
2023-04-17T00:38:16.928Z,1.35
2023-04-17T00:40:53.561Z,1.17
2023-04-17T00:43:28.750Z,1.25
2023-04-17T00:46:03.646Z,1.10
2023-04-17T00:48:40.518Z,1.45
2023-04-17T00:51:16.527Z,1.20
2023-04-17T00:53:55.249Z,1.30
2023-04-17T00:56:32.353Z,1.20
2023-04-17T00:59:09.065Z,1.17
2023-04-17T01:01:43.992Z,1.27
2023-04-17T01:04:19.177Z,1.20
2023-04-17T01:06:53.470Z,1.27
2023-04-17T01:09:28.719Z,1.30
2023-04-17T01:12:18.631Z,1.25
2023-04-17T01:14:55.145Z,1.35
2023-04-17T01:17:30.054Z,1.83
2023-04-17T01:20:12.337Z,1.50
2023-04-17T01:22:47.378Z,1.40
2023-04-17T01:25:24.044Z,1.30
2023-04-17T01:27:58.736Z,1.30
2023-04-17T01:30:35.238Z,1.48
2023-04-17T01:33:15.817Z,1.40
2023-04-17T01:35:50.809Z,1.50
2023-04-17T01:38:25.471Z,1.30
2023-04-17T01:41:02.075Z,1.38
2023-04-17T01:43:37.082Z,1.17
2023-04-17T01:46:11.724Z,1.20
2023-04-17T01:48:46.044Z,1.23
2023-04-17T01:51:21.535Z,1.08
2023-04-17T01:53:56.751Z,1.35
2023-04-17T01:56:33.655Z,1.40
2023-04-17T01:59:08.319Z,2.03
2023-04-17T02:01:43.533Z,1.35
2023-04-17T02:04:19.406Z,1.50
2023-04-17T02:06:54.468Z,1.40
2023-04-17T02:09:29.084Z,1.40
2023-04-17T02:12:05.605Z,1.52
2023-04-17T02:14:40.330Z,1.25
2023-04-17T02:17:14.963Z,1.35
2023-04-17T02:19:49.445Z,1.40
2023-04-17T02:22:24.378Z,1.35
2023-04-17T02:24:59.511Z,1.48
2023-04-17T02:27:36.119Z,1.30
2023-04-17T02:30:11.193Z,1.67
2023-04-17T02:32:46.482Z,1.27
2023-04-17T02:35:21.705Z,1.27
2023-04-17T02:37:57.702Z,1.45
2023-04-17T02:40:33.978Z,1.30
2023-04-17T02:43:11.217Z,1.30
2023-04-17T02:45:46.304Z,1.33
2023-04-17T02:48:21.427Z,1.42
2023-04-17T02:50:57.016Z,1.50
2023-04-17T02:53:32.050Z,1.55
2023-04-17T02:56:07.332Z,1.55
2023-04-17T02:58:46.078Z,1.50
2023-04-17T03:01:20.862Z,1.77
2023-04-17T03:03:55.756Z,1.70
2023-04-17T03:06:32.087Z,1.50
2023-04-17T03:09:07.294Z,1.50
2023-04-17T03:11:42.042Z,1.40
2023-04-17T03:14:18.598Z,1.30
2023-04-17T03:16:53.771Z,1.23
2023-04-17T03:19:28.662Z,1.50
2023-04-17T03:22:03.575Z,1.58
2023-04-17T03:24:38.987Z,1.77
2023-04-17T03:27:14.478Z,1.23
2023-04-17T03:29:51.391Z,1.30
2023-04-17T03:32:26.347Z,1.33
2023-04-17T03:35:00.669Z,1.45
2023-04-17T03:37:36.158Z,1.38
2023-04-17T03:40:12.420Z,1.80
2023-04-17T03:42:48.048Z,3.25
2023-04-17T03:45:25.230Z,2.95
2023-04-17T03:48:00.764Z,2.95
2023-04-17T03:50:36.217Z,2.20
2023-04-17T03:53:10.800Z,2.92
2023-04-17T03:55:46.493Z,1.58
2023-04-17T03:58:31.409Z,2.08
2023-04-17T04:01:12.652Z,1.40
2023-04-17T04:03:57.596Z,1.58
2023-04-17T04:06:32.630Z,1.48
2023-04-17T04:09:07.947Z,1.20
2023-04-17T04:11:43.182Z,1.23
2023-04-17T04:14:17.827Z,1.55
2023-04-17T04:16:56.759Z,1.50
2023-04-17T04:19:32.863Z,1.27
2023-04-17T04:22:08.397Z,1.40
2023-04-17T04:24:49.362Z,1.30
2023-04-17T04:27:26.815Z,1.25
2023-04-17T04:30:03.581Z,1.30
2023-04-17T04:32:44.448Z,1.20
2023-04-17T04:35:20.523Z,1.05
2023-04-17T04:37:56.363Z,1.20
2023-04-17T04:40:32.499Z,1.23
2023-04-17T04:43:08.434Z,1.20
2023-04-17T04:45:48.040Z,1.40
2023-04-17T04:48:25.130Z,1.13
2023-04-17T04:51:00.165Z,1.25
2023-04-17T04:53:34.846Z,1.25
2023-04-17T04:56:09.803Z,1.30
2023-04-17T04:58:44.745Z,1.25
2023-04-17T05:01:21.109Z,1.10
2023-04-17T05:03:58.748Z,1.70
2023-04-17T05:06:35.857Z,1.27
2023-04-17T05:09:11.462Z,1.30
2023-04-17T05:11:47.179Z,1.50
2023-04-17T05:14:22.429Z,1.60
2023-04-17T05:16:57.315Z,1.40
2023-04-17T05:19:34.110Z,1.30
2023-04-17T05:22:12.415Z,1.48
2023-04-17T05:25:01.532Z,1.40
2023-04-17T05:27:36.193Z,1.40
2023-04-17T05:30:11.964Z,1.35
2023-04-17T05:32:51.527Z,1.10
2023-04-17T05:35:38.769Z,1.30
2023-04-17T05:38:14.340Z,1.30
2023-04-17T05:40:48.777Z,1.30
2023-04-17T05:43:24.120Z,1.38
2023-04-17T05:46:01.094Z,1.15
2023-04-17T05:48:35.794Z,1.35
2023-04-17T05:51:12.847Z,1.40
2023-04-17T05:53:48.496Z,1.20
2023-04-17T05:56:22.860Z,1.13
2023-04-17T05:58:58.796Z,1.00
2023-04-17T06:01:35.465Z,1.20
2023-04-17T06:04:11.803Z,1.15
2023-04-17T06:06:48.912Z,1.38
2023-04-17T06:09:25.734Z,1.25
2023-04-17T06:12:00.860Z,1.20
2023-04-17T06:14:37.037Z,1.17
2023-04-17T06:17:16.096Z,1.10
2023-04-17T06:19:50.462Z,1.20
2023-04-17T06:22:26.692Z,1.10
2023-04-17T06:25:02.991Z,1.48
2023-04-17T06:27:37.924Z,1.35
2023-04-17T06:30:13.136Z,1.40
2023-04-17T06:32:56.597Z,1.10
2023-04-17T06:35:31.906Z,1.20
2023-04-17T06:38:18.137Z,1.15
2023-04-17T06:40:52.976Z,1.45
2023-04-17T06:43:27.384Z,1.30
2023-04-17T06:46:03.115Z,1.30
2023-04-17T06:48:41.056Z,1.30
2023-04-17T06:51:15.897Z,1.27
2023-04-17T06:53:52.090Z,1.38
2023-04-17T06:56:28.106Z,1.30
2023-04-17T06:59:03.158Z,1.27
2023-04-17T07:01:39.926Z,1.23
2023-04-17T07:04:15.113Z,1.25
2023-04-17T07:06:50.577Z,1.25
2023-04-17T07:09:28.030Z,1.13
2023-04-17T07:12:03.450Z,1.67
2023-04-17T07:14:37.773Z,1.40
2023-04-17T07:17:12.785Z,1.60
2023-04-17T07:19:48.452Z,1.50
2023-04-17T07:22:25.277Z,1.50
2023-04-17T07:25:03.823Z,1.20
2023-04-17T07:27:40.206Z,1.45
2023-04-17T07:30:15.485Z,1.50
2023-04-17T07:32:50.005Z,1.30
2023-04-17T07:35:25.070Z,1.60
2023-04-17T07:38:00.854Z,1.30
2023-04-17T07:40:40.167Z,1.45
2023-04-17T07:43:14.600Z,1.70
2023-04-17T07:45:50.552Z,1.38
2023-04-17T07:48:28.345Z,1.95
2023-04-17T07:51:04.873Z,1.73
2023-04-17T07:53:43.411Z,1.50
2023-04-17T07:56:20.137Z,1.52
2023-04-17T07:58:55.628Z,1.40
2023-04-17T08:01:30.588Z,1.52
2023-04-17T08:04:05.548Z,1.48
2023-04-17T08:06:41.520Z,1.70
2023-04-17T08:09:16.349Z,1.70
2023-04-17T08:11:57.428Z,1.98
2023-04-17T08:14:35.485Z,2.13
2023-04-17T08:17:10.582Z,1.80
2023-04-17T08:19:45.774Z,1.92
2023-04-17T08:22:25.788Z,2.17
2023-04-17T08:25:01.358Z,2.42
2023-04-17T08:27:37.625Z,2.38
2023-04-17T08:30:16.205Z,2.50
2023-04-17T08:32:53.903Z,2.00
2023-04-17T08:35:28.400Z,2.10
2023-04-17T08:38:03.882Z,1.95
2023-04-17T08:40:39.346Z,2.15
2023-04-17T08:43:21.647Z,2.20
2023-04-17T08:45:57.813Z,2.13
2023-04-17T08:48:33.600Z,2.28
2023-04-17T08:51:08.711Z,2.10
2023-04-17T08:53:44.296Z,2.67
2023-04-17T08:56:18.910Z,2.70
2023-04-17T08:58:55.642Z,2.20
2023-04-17T09:01:31.713Z,1.60
2023-04-17T09:04:06.939Z,1.88
2023-04-17T09:06:54.745Z,2.10
2023-04-17T09:09:31.176Z,1.40
2023-04-17T09:12:15.311Z,1.80
2023-04-17T09:14:52.781Z,1.80
2023-04-17T09:17:27.199Z,2.33
2023-04-17T09:20:11.579Z,1.80
2023-04-17T09:22:49.906Z,1.88
2023-04-17T09:25:29.658Z,2.30
2023-04-17T09:28:18.493Z,1.95
2023-04-17T09:30:55.053Z,1.60
2023-04-17T09:33:30.185Z,1.60
2023-04-17T09:36:25.023Z,1.60
2023-04-17T09:38:59.586Z,1.65
2023-04-17T09:41:34.487Z,1.70
2023-04-17T09:44:09.626Z,1.70
2023-04-17T09:46:47.838Z,1.73
2023-04-17T09:49:23.459Z,2.08
2023-04-17T09:51:58.503Z,1.52
2023-04-17T09:54:34.779Z,1.67
2023-04-17T09:57:09.926Z,1.60
2023-04-17T09:59:48.307Z,2.10
2023-04-17T10:02:25.485Z,2.00
2023-04-17T10:05:02.303Z,1.77
2023-04-17T10:07:38.698Z,1.52
2023-04-17T10:10:17.697Z,1.52
2023-04-17T10:12:55.133Z,2.35
2023-04-17T10:15:30.733Z,1.90
2023-04-17T10:18:19.549Z,1.73
2023-04-17T10:20:59.920Z,2.00
2023-04-17T10:23:40.253Z,1.90
2023-04-17T10:26:45.627Z,2.00
2023-04-17T10:29:20.788Z,1.63
2023-04-17T10:32:28.312Z,1.88
2023-04-17T10:35:03.456Z,1.75
2023-04-17T10:37:55.283Z,1.70
2023-04-17T10:40:34.455Z,1.48
2023-04-17T10:43:13.390Z,1.35
2023-04-17T10:46:01.402Z,1.30
2023-04-17T10:48:37.875Z,1.50
2023-04-17T10:51:30.485Z,1.42
2023-04-17T10:54:05.446Z,1.30
2023-04-17T10:56:43.148Z,1.40
2023-04-17T10:59:18.587Z,1.10
2023-04-17T11:02:06.136Z,1.67
2023-04-17T11:04:40.706Z,1.52
2023-04-17T11:07:22.352Z,1.40
2023-04-17T11:09:58.645Z,1.45
2023-04-17T11:12:40.839Z,1.40
2023-04-17T11:15:16.570Z,1.40
2023-04-17T11:18:01.036Z,1.25
2023-04-17T11:20:37.017Z,0.90
2023-04-17T11:23:11.648Z,1.20
2023-04-17T11:25:46.657Z,1.48
2023-04-17T11:28:26.899Z,1.27
2023-04-17T11:31:02.657Z,1.25
2023-04-17T11:33:46.433Z,1.38
2023-04-17T11:36:22.190Z,1.40
2023-04-17T11:38:58.474Z,1.33
2023-04-17T11:41:41.823Z,1.23
2023-04-17T11:44:19.904Z,1.40
2023-04-17T11:46:55.325Z,1.60
2023-04-17T11:49:31.015Z,1.80
2023-04-17T11:52:06.819Z,1.52
2023-04-17T11:54:44.217Z,1.60
2023-04-17T11:57:20.204Z,2.22
2023-04-17T11:59:57.833Z,1.60
2023-04-17T12:02:39.280Z,1.75
2023-04-17T12:05:21.483Z,1.30
2023-04-17T12:08:06.054Z,1.80
2023-04-17T12:10:44.870Z,1.88
2023-04-17T12:13:26.746Z,2.10
2023-04-17T12:16:03.593Z,1.83
2023-04-17T12:18:38.238Z,2.00
2023-04-17T12:21:13.158Z,1.85
2023-04-17T12:23:48.647Z,1.63
2023-04-17T12:26:23.668Z,1.60
2023-04-17T12:29:01.807Z,1.58
2023-04-17T12:31:38.712Z,1.90
2023-04-17T12:34:14.079Z,1.88
2023-04-17T12:36:48.976Z,1.63
2023-04-17T12:39:23.752Z,1.50
2023-04-17T12:42:01.673Z,1.60
2023-04-17T12:44:37.250Z,1.63
2023-04-17T12:47:13.775Z,1.70
2023-04-17T12:49:48.210Z,1.30
2023-04-17T12:52:23.291Z,1.50
2023-04-17T12:55:01.290Z,1.40
2023-04-17T12:57:35.911Z,1.20
2023-04-17T13:00:11.158Z,1.80
2023-04-17T13:02:48.870Z,1.60
2023-04-17T13:05:23.981Z,1.38
2023-04-17T13:07:58.618Z,1.40
2023-04-17T13:10:33.204Z,1.77
2023-04-17T13:13:08.436Z,1.88
2023-04-17T13:15:44.034Z,1.60
2023-04-17T13:18:20.980Z,1.73
2023-04-17T13:20:55.523Z,1.48
2023-04-17T13:23:30.450Z,1.60
2023-04-17T13:26:05.196Z,1.83
2023-04-17T13:28:39.898Z,1.80
2023-04-17T13:31:15.166Z,1.40
2023-04-17T13:33:54.703Z,1.52
2023-04-17T13:36:30.772Z,1.48
2023-04-17T13:39:06.865Z,1.45
2023-04-17T13:41:41.842Z,1.17
2023-04-17T13:44:17.915Z,1.58
2023-04-17T13:46:53.709Z,1.40
2023-04-17T13:49:30.855Z,1.40
2023-04-17T13:52:05.443Z,1.63
2023-04-17T13:54:40.261Z,1.58
2023-04-17T13:57:16.232Z,1.80
2023-04-17T13:59:51.037Z,1.40
2023-04-17T14:02:26.236Z,1.30
2023-04-17T14:05:03.346Z,1.38
2023-04-17T14:07:38.408Z,2.00
2023-04-17T14:10:13.756Z,1.50
2023-04-17T14:12:48.410Z,1.40
2023-04-17T14:15:23.479Z,1.42
2023-04-17T14:17:59.320Z,1.60
2023-04-17T14:20:36.239Z,1.40
2023-04-17T14:23:10.623Z,2.20
2023-04-17T14:25:45.455Z,2.08
2023-04-17T14:28:20.406Z,2.10
2023-04-17T14:30:54.930Z,2.10
2023-04-17T14:33:30.454Z,2.17
2023-04-17T14:36:06.943Z,1.85
2023-04-17T14:38:42.079Z,1.80
2023-04-17T14:41:16.695Z,2.15
2023-04-17T14:43:51.714Z,2.20
2023-04-17T14:46:26.302Z,2.28
2023-04-17T14:49:01.941Z,2.30
2023-04-17T14:51:38.462Z,2.40
2023-04-17T14:54:13.230Z,2.03
2023-04-17T14:56:47.954Z,2.13
2023-04-17T14:59:23.167Z,2.03
2023-04-17T15:01:57.940Z,2.08
2023-04-17T15:04:35.547Z,2.28
2023-04-17T15:07:12.507Z,2.42
2023-04-17T15:09:48.642Z,2.30
2023-04-17T15:12:22.780Z,2.55
2023-04-17T15:14:58.225Z,2.67
2023-04-17T15:17:32.785Z,3.13
2023-04-17T15:20:08.808Z,2.55
2023-04-17T15:22:45.644Z,2.85
2023-04-17T15:25:20.777Z,2.47
2023-04-17T15:27:55.168Z,2.42
2023-04-17T15:30:30.483Z,2.60
2023-04-17T15:33:07.135Z,2.60
2023-04-17T15:35:43.929Z,2.80
2023-04-17T15:38:20.144Z,2.40
2023-04-17T15:40:55.273Z,2.72
2023-04-17T15:43:29.992Z,2.45
2023-04-17T15:46:05.340Z,2.40
2023-04-17T15:48:39.729Z,2.28
2023-04-17T15:51:16.056Z,2.60
2023-04-17T15:53:52.330Z,2.60
2023-04-17T15:56:26.933Z,2.47
2023-04-17T15:59:01.250Z,2.67
2023-04-17T16:01:36.442Z,2.65
2023-04-17T16:04:10.917Z,2.60
2023-04-17T16:06:46.307Z,2.53
2023-04-17T16:09:25.899Z,2.65
2023-04-17T16:12:01.084Z,2.90
2023-04-17T16:14:37.050Z,2.47
2023-04-17T16:17:11.944Z,2.67
2023-04-17T16:19:47.736Z,2.90
2023-04-17T16:22:25.281Z,2.90
2023-04-17T16:25:03.391Z,3.03
2023-04-17T16:27:38.700Z,2.60
2023-04-17T16:30:14.829Z,2.70
2023-04-17T16:32:51.863Z,2.38
2023-04-17T16:35:26.694Z,2.80
2023-04-17T16:38:03.093Z,2.67
2023-04-17T16:40:39.382Z,2.40
2023-04-17T16:43:14.612Z,2.50
2023-04-17T16:45:48.906Z,2.50
2023-04-17T16:48:23.908Z,2.53
2023-04-17T16:50:58.298Z,2.63
2023-04-17T16:53:33.915Z,2.53
2023-04-17T16:56:10.253Z,2.80
2023-04-17T16:58:44.664Z,2.50
2023-04-17T17:01:18.970Z,2.78
2023-04-17T17:03:54.776Z,2.88
2023-04-17T17:06:29.181Z,2.80
2023-04-17T17:09:07.748Z,2.80
2023-04-17T17:11:43.922Z,2.60
2023-04-17T17:14:20.565Z,2.65
2023-04-17T17:16:54.994Z,2.55
2023-04-17T17:19:30.086Z,2.65
2023-04-17T17:22:04.394Z,2.60
2023-04-17T17:24:41.773Z,2.78
2023-04-17T17:27:19.866Z,2.83
2023-04-17T17:29:54.996Z,2.70
2023-04-17T17:32:29.367Z,3.08
2023-04-17T17:35:04.602Z,2.80
2023-04-17T17:37:38.888Z,2.60
2023-04-17T17:40:15.658Z,2.90
2023-04-17T17:42:51.906Z,3.00
2023-04-17T17:45:30.954Z,3.33
2023-04-17T17:48:05.277Z,2.40
2023-04-17T17:50:40.094Z,2.90
2023-04-17T17:53:14.202Z,3.00
2023-04-17T17:55:55.581Z,2.60
2023-04-17T17:58:31.591Z,2.80
2023-04-17T18:01:06.280Z,2.80
2023-04-17T18:03:41.157Z,2.95
2023-04-17T18:06:16.176Z,2.35
2023-04-17T18:08:50.754Z,2.50
2023-04-17T18:11:26.577Z,2.67
2023-04-17T18:14:04.198Z,2.80
2023-04-17T18:16:39.614Z,2.80
2023-04-17T18:19:14.288Z,2.72
2023-04-17T18:21:49.004Z,2.65
2023-04-17T18:24:24.118Z,2.83
2023-04-17T18:27:00.119Z,2.72
2023-04-17T18:29:38.112Z,2.53
2023-04-17T18:32:12.734Z,2.78
2023-04-17T18:34:50.636Z,2.90
2023-04-17T18:37:25.541Z,2.90
2023-04-17T18:40:00.132Z,2.50
2023-04-17T18:42:35.411Z,2.42
2023-04-17T18:45:15.276Z,2.78
2023-04-17T18:47:52.998Z,2.63
2023-04-17T18:50:28.459Z,2.47
2023-04-17T18:53:02.907Z,2.63
2023-04-17T18:55:38.806Z,2.40
2023-04-17T18:58:15.619Z,2.47
2023-04-17T19:00:51.839Z,2.55
2023-04-17T19:03:26.814Z,2.80
2023-04-17T19:06:01.150Z,2.60
2023-04-17T19:08:35.683Z,2.67
2023-04-17T19:11:13.216Z,2.30
2023-04-17T19:13:48.665Z,2.20
2023-04-17T19:16:24.906Z,2.65
2023-04-17T19:19:00.418Z,2.60
2023-04-17T19:21:34.716Z,2.50
2023-04-17T19:24:10.198Z,2.40
2023-04-17T19:26:45.159Z,2.70
2023-04-17T19:29:20.275Z,2.33
2023-04-17T19:31:57.020Z,2.35
2023-04-17T19:34:35.303Z,2.25
2023-04-17T19:37:09.956Z,2.55
2023-04-17T19:39:44.462Z,2.33
2023-04-17T19:42:19.654Z,2.25
2023-04-17T19:44:55.311Z,2.50
2023-04-17T19:47:32.202Z,2.25
2023-04-17T19:50:06.902Z,2.40
2023-04-17T19:52:41.628Z,2.40
2023-04-17T19:55:16.654Z,2.50
2023-04-17T19:57:52.585Z,2.50
2023-04-17T20:00:27.867Z,2.65
2023-04-17T20:03:04.366Z,2.47
2023-04-17T20:05:39.300Z,2.70
2023-04-17T20:08:14.549Z,2.30
2023-04-17T20:10:49.149Z,2.65
2023-04-17T20:13:23.488Z,2.30
2023-04-17T20:15:59.013Z,2.42
2023-04-17T20:18:38.723Z,2.63
2023-04-17T20:21:13.986Z,2.55
2023-04-17T20:23:49.330Z,2.55
2023-04-17T20:26:24.081Z,2.67
2023-04-17T20:29:01.628Z,2.60
2023-04-17T20:31:38.216Z,2.90
2023-04-17T20:34:14.884Z,2.30
2023-04-17T20:36:49.809Z,2.30
2023-04-17T20:39:25.599Z,2.63
2023-04-17T20:42:00.392Z,2.67
2023-04-17T20:44:36.290Z,2.60
2023-04-17T20:47:11.913Z,2.45
2023-04-17T20:49:48.591Z,2.45
2023-04-17T20:52:22.898Z,2.30
2023-04-17T20:54:57.460Z,2.60
2023-04-17T20:57:32.436Z,2.72
2023-04-17T21:00:07.509Z,2.50
2023-04-17T21:02:43.038Z,2.80
2023-04-17T21:05:19.313Z,2.50
2023-04-17T21:07:54.656Z,2.80
2023-04-17T21:10:29.367Z,2.47
2023-04-17T21:13:03.991Z,2.45
2023-04-17T21:15:38.273Z,2.33
2023-04-17T21:18:17.248Z,2.90
2023-04-17T21:20:53.922Z,2.65
2023-04-17T21:23:28.569Z,2.80
2023-04-17T21:26:02.829Z,2.92
2023-04-17T21:28:41.065Z,2.97
2023-04-17T21:31:18.933Z,3.42
2023-04-17T21:33:54.510Z,3.30
2023-04-17T21:36:30.812Z,3.80
2023-04-17T21:39:05.378Z,3.25
2023-04-17T21:41:39.759Z,3.53
2023-04-17T21:44:14.523Z,3.40
2023-04-17T21:46:49.673Z,3.08
2023-04-17T21:49:24.923Z,3.30
2023-04-17T21:52:02.083Z,3.40
2023-04-17T21:54:36.388Z,3.15
2023-04-17T21:57:10.706Z,3.20
2023-04-17T21:59:45.695Z,3.53
2023-04-17T22:02:20.830Z,3.10
2023-04-17T22:04:55.984Z,2.90
2023-04-17T22:07:38.125Z,3.25
2023-04-17T22:10:19.033Z,3.33
2023-04-17T22:12:54.024Z,3.42
2023-04-17T22:15:28.670Z,3.00
2023-04-17T22:18:03.165Z,3.17
2023-04-17T22:20:38.427Z,3.42
2023-04-17T22:23:46.979Z,3.50
2023-04-17T22:27:13.595Z,3.00
2023-04-17T22:30:40.670Z,3.63
2023-04-17T22:34:20.729Z,3.03
2023-04-17T22:38:09.049Z,3.63
2023-04-17T22:42:02.996Z,3.60
2023-04-17T22:45:57.093Z,3.53
2023-04-17T22:49:36.318Z,4.18
2023-04-17T22:53:24.003Z,4.13
2023-04-17T22:57:13.642Z,3.33
2023-04-17T23:01:11.066Z,3.38
2023-04-17T23:05:01.077Z,3.30
2023-04-17T23:08:35.676Z,3.30
2023-04-17T23:11:34.053Z,3.53
2023-04-17T23:14:23.301Z,3.63
2023-04-17T23:17:14.141Z,3.10
2023-04-17T23:20:09.009Z,2.72
2023-04-17T23:22:51.904Z,2.88
2023-04-17T23:25:41.075Z,2.88
2023-04-17T23:28:42.617Z,3.20
2023-04-17T23:31:32.811Z,3.28
2023-04-17T23:34:15.147Z,2.95
2023-04-17T23:37:03.981Z,3.13
2023-04-17T23:39:46.340Z,2.78
2023-04-17T23:42:21.899Z,2.67
2023-04-17T23:44:58.605Z,2.97
2023-04-17T23:47:42.187Z,3.03
2023-04-17T23:50:32.050Z,2.55
2023-04-17T23:53:21.379Z,2.30
2023-04-17T23:56:06.374Z,2.45
2023-04-17T23:59:08.043Z,2.30
